Cherokee, California
Current Conditions -  °F | °C
As of 11:53 AM on Wednesday 28 Jan 2015 (Local Time) from KOVE Reporting Station
Clear Clear  
Wind Chill: 61°   Ceiling: Unl
Heat Index: 61°   Visibility: 10mi
Dew Point: 44°   Wind: 6mph
Humidity: 54%   Direction: 300°WNW
Pressure: 30.22"   Gusts: NA
Location:  39.5324°N, 121.648°W
Report Text: KOVE 281953Z AUTO 30005KT 10SM CLR 16/07 A3022 RMK AO2 SLP235 T01610067
Loading
Personal Weather Stations






























Interactive Weather Map New forecast layout! Learn more

10-Day Weather Forecast

Advertisements
Track Severe Weather on mobile